Weather at Keflavik International Airport

Public forecast

Using degrees Celsius for public forecast. Weather courtesy of forecast.io.

Current aviation weather report (METAR) for Keflavik International Airport

2022/11/27 07:30 (retrieved 30 minutes ago)

BIKF 270730Z 01021KT CAVOK 04/02 Q0986

Aviation forecast (TAF) for Keflavik International Airport

2022/11/27 09:00 (retrieved 0 seconds ago)

TAF BIKF 270757Z 2709/2809 02018KT 9999 FEW030 TX05/2714Z TN01/2724Z TEMPO 2709/2718 02020G30KT BECMG 2807/2809 35008KT